Time;durP1;ratioP1;P1;durP2;ratioP2;P2;SDS_P1;SDS_P2;PMS_P1;PMS_P2;Temp;Humidity;BMP_temperature;BMP_pressure;BME280_temperature;BME280_humidity;BME280_pressure;Samples;Min_cycle;Max_cycle;Signal;HPM_P1;HPM_P2
2023/04/02 00:00:09;;;;;;;17.70;6.90;;;;;;;3.32;92.66;100160.46;110964;1206;140019;-63
2023/04/02 00:02:44;;;;;;;16.90;10.20;;;;;;;3.30;92.42;100162.63;110905;1211;99149;-62
2023/04/02 00:05:17;;;;;;;26.70;11.40;;;;;;;3.32;92.77;100167.17;110794;1212;138709;-63
2023/04/02 00:07:47;;;;;;;22.00;8.40;;;;;;;3.34;92.69;100167.13;110989;1219;97763;-62
2023/04/02 00:10:46;;;;;;;19.60;7.40;;;;;;;3.34;92.68;100166.42;110888;1212;139187;-63
2023/04/02 00:13:11;;;;;;;15.80;8.20;;;;;;;3.31;92.60;100168.79;111056;1212;111458;-62
2023/04/02 00:15:44;;;;;;;22.10;10.00;;;;;;;3.33;92.66;100171.93;110999;1206;97671;-62
2023/04/02 00:18:15;;;;;;;19.40;9.80;;;;;;;3.31;92.64;100174.08;111027;1212;138535;-62
2023/04/02 00:20:45;;;;;;;15.90;7.40;;;;;;;3.31;92.69;100176.73;110968;1211;96541;-63
2023/04/02 00:23:13;;;;;;;18.90;9.30;;;;;;;3.30;92.64;100179.75;110949;1206;139519;-63
2023/04/02 00:25:42;;;;;;;22.80;10.60;;;;;;;3.31;92.56;100182.38;111018;1209;111834;-63
2023/04/02 00:28:25;;;;;;;26.70;10.90;;;;;;;3.35;92.76;100184.60;111047;1212;142253;-63
2023/04/02 00:30:58;;;;;;;21.00;9.20;;;;;;;3.38;92.66;100184.18;111023;1212;106847;-62
2023/04/02 00:33:27;;;;;;;17.50;7.10;;;;;;;3.39;92.60;100186.28;111001;1212;102024;-63
2023/04/02 00:35:54;;;;;;;18.30;8.60;;;;;;;3.36;92.58;100186.34;110950;1212;139191;-63
2023/04/02 00:38:28;;;;;;;19.70;9.00;;;;;;;3.35;92.56;100191.30;110964;1210;98932;-63
2023/04/02 00:40:57;;;;;;;14.40;7.50;;;;;;;3.37;92.37;100190.02;110914;1212;139892;-61
2023/04/02 00:43:26;;;;;;;16.30;7.20;;;;;;;3.37;92.28;100192.48;110996;1206;108152;-62
2023/04/02 00:45:58;;;;;;;11.80;6.10;;;;;;;3.36;92.40;100194.45;111046;1221;97697;-62
2023/04/02 00:48:41;;;;;;;24.40;9.10;;;;;;;3.34;92.41;100198.22;111121;1210;97611;-61
2023/04/02 00:51:13;;;;;;;18.00;7.30;;;;;;;3.35;92.70;100200.30;111033;1209;111701;-63
2023/04/02 00:53:41;;;;;;;19.20;9.20;;;;;;;3.34;92.55;100199.09;110890;1209;139040;-61
2023/04/02 00:56:32;;;;;;;17.20;8.30;;;;;;;3.34;92.52;100201.03;111058;1212;108083;-61
2023/04/02 00:58:58;;;;;;;14.00;7.40;;;;;;;3.34;92.60;100203.14;110931;1206;139167;-61
2023/04/02 01:01:35;;;;;;;19.80;9.90;;;;;;;3.31;92.37;100206.73;111003;1212;99022;-62
2023/04/02 01:04:04;;;;;;;14.00;5.90;;;;;;;3.34;92.42;100209.34;111001;1206;139699;-61
2023/04/02 01:06:34;;;;;;;12.90;6.90;;;;;;;3.34;92.34;100209.16;111060;1209;99842;-62
2023/04/02 01:09:26;;;;;;;21.20;10.80;;;;;;;3.33;92.52;100211.83;110926;1206;108340;-62
2023/04/02 01:12:09;;;;;;;20.00;9.00;;;;;;;3.34;92.29;100212.86;110868;1212;140440;-62
2023/04/02 01:14:50;;;;;;;16.80;7.20;;;;;;;3.29;92.12;100217.04;111210;1210;97649;-62
2023/04/02 01:17:27;;;;;;;11.20;6.50;;;;;;;3.26;92.15;100219.20;110918;1206;138813;-63
2023/04/02 01:20:22;;;;;;;18.80;6.80;;;;;;;3.24;92.28;100221.54;111036;1206;100046;-63
2023/04/02 01:23:04;;;;;;;15.80;8.00;;;;;;;3.26;92.32;100226.44;110935;1209;140450;-63
2023/04/02 01:25:56;;;;;;;24.70;9.40;;;;;;;3.29;92.18;100230.99;111004;1212;97651;-63
2023/04/02 01:28:30;;;;;;;17.00;8.70;;;;;;;3.30;92.23;100231.66;110924;1206;138873;-63
2023/04/02 01:31:00;;;;;;;20.90;9.60;;;;;;;3.30;92.15;100232.38;110982;1212;112301;-63
2023/04/02 01:33:30;;;;;;;19.70;9.40;;;;;;;3.30;92.28;100233.61;111058;1209;101003;-63
2023/04/02 01:36:29;;;;;;;16.10;7.70;;;;;;;3.30;92.22;100240.85;110908;1206;139295;-63
2023/04/02 01:39:24;;;;;;;16.90;7.70;;;;;;;3.30;92.23;100240.31;111102;1212;97681;-63
2023/04/02 01:42:02;;;;;;;17.20;6.60;;;;;;;3.27;92.24;100244.96;110969;1206;138884;-63
2023/04/02 01:44:40;;;;;;;16.90;8.00;;;;;;;3.26;92.15;100246.39;110975;1212;111635;-63
2023/04/02 01:47:10;;;;;;;18.00;8.30;;;;;;;3.29;92.10;100250.58;111008;1206;138977;-63
2023/04/02 01:49:35;;;;;;;20.80;9.70;;;;;;;3.30;92.21;100257.98;111015;1212;108616;-63
2023/04/02 01:52:00;;;;;;;20.40;9.70;;;;;;;3.30;92.10;100261.86;110934;1205;139389;-63
2023/04/02 01:54:27;;;;;;;19.60;9.10;;;;;;;3.30;92.39;100261.34;110993;1209;97654;-62
2023/04/02 01:56:56;;;;;;;15.20;8.30;;;;;;;3.29;92.19;100267.17;110976;1212;99963;-62
2023/04/02 01:59:22;;;;;;;22.10;9.50;;;;;;;3.28;92.12;100266.85;110872;1209;138892;-63
2023/04/02 02:02:11;;;;;;;24.80;10.00;;;;;;;3.27;92.20;100270.75;111011;1210;97674;-62
2023/04/02 02:04:37;;;;;;;16.80;7.60;;;;;;;3.24;92.28;100272.92;110958;1206;139164;-62
2023/04/02 02:07:04;;;;;;;13.80;7.30;;;;;;;3.21;92.20;100275.10;111039;1206;97007;-63
2023/04/02 02:09:34;;;;;;;21.40;9.60;;;;;;;3.19;92.11;100277.97;111120;1210;97624;-63
2023/04/02 02:12:01;;;;;;;18.10;7.90;;;;;;;3.21;92.26;100278.45;111024;1212;138314;-63
2023/04/02 02:14:28;;;;;;;14.60;5.40;;;;;;;3.22;92.38;100284.80;110998;1211;97641;-63
2023/04/02 02:16:56;;;;;;;20.70;7.90;;;;;;;3.17;92.15;100286.64;110935;1210;141175;-62
2023/04/02 02:19:41;;;;;;;15.20;7.10;;;;;;;3.17;92.16;100287.90;110978;1212;97652;-62
2023/04/02 02:22:20;;;;;;;13.30;5.90;;;;;;;3.17;91.93;100290.55;110931;1211;140064;-62
2023/04/02 02:24:46;;;;;;;15.50;6.90;;;;;;;3.17;92.04;100291.42;111075;1211;107488;-62
2023/04/02 02:27:37;;;;;;;16.20;7.00;;;;;;;3.18;91.95;100294.92;110983;1206;97415;-62
2023/04/02 02:30:11;;;;;;;17.30;7.40;;;;;;;3.20;91.89;100298.95;110925;1206;139561;-62
2023/04/02 02:32:44;;;;;;;16.20;7.30;;;;;;;3.23;92.00;100299.78;111026;1211;111246;-62
2023/04/02 02:35:22;;;;;;;13.60;6.70;;;;;;;3.21;91.79;100303.16;110942;1210;140841;-62
2023/04/02 02:37:55;;;;;;;9.40;4.70;;;;;;;3.20;91.80;100307.42;111110;1206;109413;-62
2023/04/02 02:40:31;;;;;;;10.90;4.40;;;;;;;3.18;91.69;100308.35;110829;1206;139302;-62
2023/04/02 02:43:01;;;;;;;13.20;5.60;;;;;;;3.15;91.39;100314.93;111075;1209;97711;-62
2023/04/02 02:45:31;;;;;;;16.30;7.00;;;;;;;3.12;91.33;100319.23;111002;1206;111767;-62
2023/04/02 02:47:58;;;;;;;16.80;7.80;;;;;;;3.13;91.51;100320.10;111096;1209;139064;-62
2023/04/02 02:50:28;;;;;;;13.00;6.00;;;;;;;3.15;91.47;100325.17;111041;1206;97606;-63
2023/04/02 02:52:57;;;;;;;11.40;5.70;;;;;;;3.15;91.40;100326.60;110929;1205;140613;-63
2023/04/02 02:55:40;;;;;;;12.40;6.30;;;;;;;3.12;91.16;100333.89;111122;1211;97662;-61
2023/04/02 02:58:16;;;;;;;11.90;6.20;;;;;;;3.11;91.09;100334.08;110864;1211;139096;-62
2023/04/02 03:00:42;;;;;;;8.80;4.70;;;;;;;3.12;91.22;100337.59;111016;1206;100033;-62
2023/04/02 03:03:13;;;;;;;13.70;6.50;;;;;;;3.12;91.21;100336.89;111096;1211;97690;-63
2023/04/02 03:05:40;;;;;;;18.90;6.90;;;;;;;3.12;91.08;100343.06;110885;1206;138434;-62
2023/04/02 03:08:18;;;;;;;13.80;7.00;;;;;;;3.13;91.17;100343.58;110901;1206;96571;-63
2023/04/02 03:11:01;;;;;;;12.40;7.10;;;;;;;3.14;91.00;100346.90;110891;1211;138932;-62
2023/04/02 03:13:31;;;;;;;14.50;7.00;;;;;;;3.16;90.98;100345.82;111051;1211;100479;-62
2023/04/02 03:16:17;;;;;;;13.40;5.50;;;;;;;3.16;91.05;100353.95;110834;1209;139225;-62
2023/04/02 03:18:51;;;;;;;7.90;4.20;;;;;;;3.14;91.13;100352.57;110928;1212;98664;-62
2023/04/02 03:21:23;;;;;;;7.50;4.90;;;;;;;3.13;91.16;100356.29;111039;1210;97662;-63
2023/04/02 03:24:00;;;;;;;10.40;5.60;;;;;;;3.13;91.00;100367.58;110917;1211;138264;-62
2023/04/02 03:26:34;;;;;;;10.50;5.40;;;;;;;3.15;90.98;100371.08;111036;1208;99754;-62
2023/04/02 03:29:20;;;;;;;10.20;4.30;;;;;;;3.12;91.06;100374.65;110985;1206;139580;-62
2023/04/02 03:32:14;;;;;;;7.20;4.90;;;;;;;3.10;90.88;100380.88;111020;1211;97566;-62
2023/04/02 03:34:48;;;;;;;13.50;4.10;;;;;;;3.09;90.88;100381.59;110963;1211;138392;-63
2023/04/02 03:37:24;;;;;;;4.50;3.10;;;;;;;3.06;90.68;100384.83;111095;1211;111020;-62
2023/04/02 03:39:57;;;;;;;5.00;3.50;;;;;;;2.99;90.57;100388.83;110935;1206;99834;-62
2023/04/02 03:42:36;;;;;;;3.40;2.20;;;;;;;2.95;90.35;100386.96;111017;1211;107356;-62
2023/04/02 03:45:15;;;;;;;4.10;2.80;;;;;;;2.92;90.33;100394.41;111001;1209;97908;-62
2023/04/02 03:48:07;;;;;;;6.60;3.70;;;;;;;2.90;90.39;100403.09;110971;1206;140425;-62
2023/04/02 03:50:49;;;;;;;9.20;4.60;;;;;;;2.91;90.42;100409.25;110947;1206;109726;-62
2023/04/02 03:53:14;;;;;;;12.10;5.80;;;;;;;2.93;90.10;100413.64;110905;1210;139296;-63
2023/04/02 03:55:40;;;;;;;10.80;5.10;;;;;;;2.97;90.49;100416.76;110904;1205;98093;-62
2023/04/02 03:58:12;;;;;;;7.60;4.70;;;;;;;2.98;90.27;100417.79;110949;1209;138825;-62
2023/04/02 04:01:04;;;;;;;6.10;3.70;;;;;;;2.98;90.30;100419.74;110894;1209;111611;-62
2023/04/02 04:03:54;;;;;;;5.90;3.40;;;;;;;2.95;90.34;100425.77;111026;1210;99662;-62
2023/04/02 04:06:26;;;;;;;8.40;4.20;;;;;;;2.94;90.32;100430.56;110942;1209;139355;-62
2023/04/02 04:09:15;;;;;;;5.80;3.00;;;;;;;2.93;90.12;100436.05;110927;1206;97691;-62
2023/04/02 04:11:47;;;;;;;5.70;3.10;;;;;;;2.92;90.41;100437.13;110959;1209;140240;-62
2023/04/02 04:14:36;;;;;;;3.10;2.00;;;;;;;2.92;90.39;100440.11;110987;1208;112150;-62
2023/04/02 04:17:16;;;;;;;5.10;2.90;;;;;;;2.89;90.12;100444.94;110969;1211;140205;-62
2023/04/02 04:19:45;;;;;;;6.60;4.10;;;;;;;2.89;90.22;100450.05;111002;1209;107914;-62
2023/04/02 04:22:17;;;;;;;4.60;3.20;;;;;;;2.90;89.94;100460.45;110993;1211;138712;-62
2023/04/02 04:24:46;;;;;;;3.90;2.60;;;;;;;2.91;89.98;100462.73;111101;1206;97565;-62
2023/04/02 04:27:33;;;;;;;4.10;3.00;;;;;;;2.93;90.08;100469.58;111008;1209;111735;-62
2023/04/02 04:30:19;;;;;;;4.80;3.30;;;;;;;2.91;89.86;100475.60;110919;1210;138519;-62
2023/04/02 04:32:56;;;;;;;5.40;2.80;;;;;;;2.91;89.88;100478.26;110942;1223;107615;-60
2023/04/02 04:35:30;;;;;;;4.50;3.00;;;;;;;2.91;89.85;100485.67;110852;1208;139349;-60
2023/04/02 04:38:02;;;;;;;5.30;3.30;;;;;;;2.90;89.65;100490.27;111155;1208;97644;-62
2023/04/02 04:40:31;;;;;;;4.10;2.80;;;;;;;2.92;89.87;100489.71;110844;1212;138888;-61
2023/04/02 04:43:02;;;;;;;6.10;3.10;;;;;;;2.95;89.68;100492.31;111104;1222;100299;-62
2023/04/02 04:45:46;;;;;;;;;;;;;;;2.96;89.55;100492.48;110947;1209;107829;-62
2023/04/02 04:48:19;;;;;;;3.40;2.20;;;;;;;2.92;89.31;100497.48;110889;1222;124804;-62
2023/04/02 04:50:59;;;;;;;3.70;2.70;;;;;;;2.90;89.00;100500.69;111036;1209;96450;-62
2023/04/02 04:53:28;;;;;;;3.90;2.70;;;;;;;2.89;88.74;100501.05;111083;1206;138169;-62
2023/04/02 04:55:58;;;;;;;5.10;2.70;;;;;;;2.91;88.96;100504.20;111048;1206;99680;-62
2023/04/02 04:58:42;;;;;;;7.10;2.20;;;;;;;2.92;88.86;100511.77;110793;1211;138641;-61
2023/04/02 05:01:20;;;;;;;4.20;2.30;;;;;;;2.91;88.73;100514.26;110853;1212;99250;-63
2023/04/02 05:04:04;;;;;;;6.00;2.50;;;;;;;2.92;88.71;100519.37;111062;1211;97678;-63
2023/04/02 05:06:30;;;;;;;2.60;2.00;;;;;;;2.92;88.45;100526.41;111067;1206;111353;-62
2023/04/02 05:09:00;;;;;;;3.50;1.80;;;;;;;2.93;88.56;100531.88;111085;1211;97692;-62
2023/04/02 05:11:32;;;;;;;4.10;2.40;;;;;;;2.93;88.15;100534.52;110836;1208;138726;-61
2023/04/02 05:14:05;;;;;;;2.60;1.90;;;;;;;2.91;88.10;100533.68;111002;1206;97571;-61
2023/04/02 05:16:38;;;;;;;4.20;2.10;;;;;;;2.91;88.13;100541.96;110862;1208;140211;-61
2023/04/02 05:19:19;;;;;;;5.20;2.30;;;;;;;2.90;87.86;100546.56;111015;1212;110922;-63
2023/04/02 05:22:02;;;;;;;8.40;2.30;;;;;;;2.90;87.49;100545.88;110933;1209;99957;-61
2023/04/02 05:24:50;;;;;;;7.90;2.20;;;;;;;2.90;87.34;100550.27;110945;1206;107684;-62
2023/04/02 05:27:44;;;;;;;4.30;2.20;;;;;;;2.89;87.18;100552.06;110978;1208;97620;-62
2023/04/02 05:30:22;;;;;;;7.60;3.10;;;;;;;2.93;87.45;100559.95;110849;1205;138151;-62
2023/04/02 05:33:13;;;;;;;7.00;2.40;;;;;;;2.96;87.10;100559.55;110939;1211;111763;-62
2023/04/02 05:35:43;;;;;;;2.30;1.70;;;;;;;2.96;87.09;100562.90;110681;1206;138580;-62
2023/04/02 05:38:19;;;;;;;4.00;2.50;;;;;;;2.97;87.02;100564.66;110889;1222;108097;-62
2023/04/02 05:40:49;;;;;;;5.00;2.90;;;;;;;2.98;87.01;100571.71;110884;1211;138531;-62
2023/04/02 05:43:19;;;;;;;4.20;2.80;;;;;;;3.00;86.95;100570.63;110862;1211;97613;-61
2023/04/02 05:45:52;;;;;;;5.70;2.60;;;;;;;3.02;87.40;100577.13;110915;1205;110599;-61
2023/04/02 05:48:28;;;;;;;7.40;2.30;;;;;;;3.03;87.23;100579.59;110720;1211;140026;-62
2023/04/02 05:50:57;;;;;;;5.30;1.90;;;;;;;3.04;87.16;100585.04;110867;1206;108286;-62
2023/04/02 05:53:44;;;;;;;5.00;1.80;;;;;;;3.06;87.15;100586.78;113116;1208;138919;-63
2023/04/02 05:56:19;;;;;;;4.80;1.50;;;;;;;3.04;86.94;100593.52;113251;1206;95877;-63
2023/04/02 05:59:11;;;;;;;2.40;1.60;;;;;;;3.04;86.93;100594.92;113154;1205;138156;-62
2023/04/02 06:02:03;;;;;;;1.90;1.30;;;;;;;3.05;86.82;100597.91;111694;1208;99594;-63
2023/04/02 06:04:49;;;;;;;6.60;2.10;;;;;;;3.03;86.56;100607.30;110643;1211;138323;-62
2023/04/02 06:07:22;;;;;;;3.20;1.80;;;;;;;3.03;86.40;100609.07;111029;1206;97693;-62
2023/04/02 06:09:52;;;;;;;5.60;1.90;;;;;;;3.01;86.17;100614.75;110926;1208;99209;-62
2023/04/02 06:12:51;;;;;;;6.00;2.50;;;;;;;2.98;86.09;100623.07;110760;1211;138570;-61
2023/04/02 06:15:20;;;;;;;4.00;1.50;;;;;;;2.99;85.75;100624.47;110856;1211;100017;-62
2023/04/02 06:18:26;;;;;;;6.40;1.90;;;;;;;2.96;85.24;100624.50;110682;1210;138880;-62
2023/04/02 06:20:51;;;;;;;10.00;2.30;;;;;;;2.95;85.29;100630.52;110902;1206;97562;-62
2023/04/02 06:23:31;;;;;;;3.70;2.10;;;;;;;2.99;85.18;100632.95;110609;1211;139053;-62
2023/04/02 06:26:24;;;;;;;3.30;1.60;;;;;;;3.02;85.06;100631.66;110855;1211;110818;-62
2023/04/02 06:28:54;;;;;;;7.50;3.60;;;;;;;2.99;84.61;100637.70;110586;1211;138879;-62
2023/04/02 06:31:43;;;;;;;5.10;1.60;;;;;;;3.01;84.60;100639.98;113100;1205;107803;-62
2023/04/02 06:34:20;;;;;;;5.50;1.70;;;;;;;3.06;84.66;100641.33;113077;1206;140051;-62
2023/04/02 06:36:47;;;;;;;6.20;1.90;;;;;;;3.09;84.36;100649.05;113260;1207;95472;-62
2023/04/02 06:39:24;;;;;;;4.40;1.60;;;;;;;3.13;84.39;100648.46;111982;1211;97706;-62
2023/04/02 06:42:33;;;;;;;5.20;1.90;;;;;;;3.18;84.09;100650.17;110930;1206;138873;-62
2023/04/02 06:44:59;;;;;;;5.10;2.20;;;;;;;3.29;84.52;100654.80;110704;1211;109269;-62
2023/04/02 06:47:42;;;;;;;6.30;2.00;;;;;;;3.32;84.02;100650.86;110717;1206;138982;-63
2023/04/02 06:50:23;;;;;;;5.00;2.10;;;;;;;3.31;84.03;100662.18;110934;1206;97909;-63
2023/04/02 06:52:52;;;;;;;7.30;2.80;;;;;;;3.30;83.64;100669.96;110789;1206;139775;-63
2023/04/02 06:55:55;;;;;;;4.50;2.20;;;;;;;3.26;83.70;100674.80;110899;1206;99056;-62
2023/04/02 06:58:21;;;;;;;4.10;2.00;;;;;;;3.25;83.72;100684.69;110601;1211;138263;-62
2023/04/02 07:00:49;;;;;;;5.70;2.50;;;;;;;3.27;83.74;100686.95;110764;1208;97671;-62
2023/04/02 07:03:30;;;;;;;3.60;1.90;;;;;;;3.26;83.54;100691.20;110789;1210;98519;-63
2023/04/02 07:05:57;;;;;;;5.00;2.00;;;;;;;3.25;83.44;100696.16;110727;1206;138288;-63
2023/04/02 07:08:23;;;;;;;10.70;4.00;;;;;;;3.30;83.74;100698.04;110793;1209;97919;-62
2023/04/02 07:10:48;;;;;;;9.10;2.30;;;;;;;3.37;83.56;100696.72;110759;1208;138375;-63
2023/04/02 07:13:19;;;;;;;7.00;2.50;;;;;;;3.39;83.43;100701.10;111011;1211;98110;-63
2023/04/02 07:15:45;;;;;;;;;;;;;;;3.42;83.16;100705.30;110888;1211;110200;-62
2023/04/02 07:18:23;;;;;;;7.20;2.20;;;;;;;3.44;83.05;100709.52;110872;1206;126781;-62
2023/04/02 07:20:48;;;;;;;5.40;2.00;;;;;;;3.46;82.91;100711.61;110970;1211;108029;-62
2023/04/02 07:23:15;;;;;;;7.80;2.30;;;;;;;3.46;82.88;100709.66;110906;1206;138418;-64
2023/04/02 07:25:40;;;;;;;4.90;1.60;;;;;;;3.51;82.98;100713.84;111020;1205;97719;-63
2023/04/02 07:28:05;;;;;;;10.40;2.40;;;;;;;3.52;82.41;100721.42;110869;1212;139302;-63
2023/04/02 07:30:31;;;;;;;12.30;3.10;;;;;;;3.49;82.38;100721.11;111056;1206;97707;-62
2023/04/02 07:32:56;;;;;;;5.10;2.30;;;;;;;3.51;82.61;100723.55;111014;1206;97645;-62
2023/04/02 07:35:21;;;;;;;6.30;2.50;;;;;;;3.55;82.47;100725.80;110780;1207;138693;-62
2023/04/02 07:37:47;;;;;;;4.50;2.20;;;;;;;3.54;82.71;100730.92;110933;1206;97606;-62
2023/04/02 07:40:19;;;;;;;5.80;2.50;;;;;;;3.58;82.74;100731.58;110872;1210;138974;-62
2023/04/02 07:42:45;;;;;;;4.80;2.70;;;;;;;3.58;82.32;100737.77;110948;1210;96790;-62
2023/04/02 07:45:10;;;;;;;11.00;2.60;;;;;;;3.55;81.92;100740.80;110984;1210;97663;-60
2023/04/02 07:47:36;;;;;;;13.10;2.60;;;;;;;3.56;82.35;100750.88;110847;1208;139394;-63
2023/04/02 07:50:01;;;;;;;4.20;1.80;;;;;;;3.62;82.35;100751.33;111010;1206;97581;-60
2023/04/02 07:52:26;;;;;;;12.70;2.40;;;;;;;3.66;82.38;100754.80;110943;1211;138309;-61
2023/04/02 07:54:51;;;;;;;5.30;2.80;;;;;;;3.66;82.25;100759.75;110825;1211;97710;-63
2023/04/02 07:57:16;;;;;;;5.50;2.30;;;;;;;3.66;82.22;100766.64;111019;1206;97717;-63
2023/04/02 07:59:42;;;;;;;14.60;2.60;;;;;;;3.79;82.27;100771.24;110906;1219;139179;-63
2023/04/02 08:02:18;;;;;;;7.40;2.30;;;;;;;3.84;82.41;100779.48;111006;1211;97668;-61
2023/04/02 08:04:44;;;;;;;6.50;2.10;;;;;;;3.86;82.24;100785.63;110897;1206;138345;-61
2023/04/02 08:07:09;;;;;;;7.70;2.80;;;;;;;3.89;82.05;100787.36;111055;1206;97915;-61
2023/04/02 08:09:34;;;;;;;6.50;2.10;;;;;;;3.85;81.98;100792.36;111055;1206;97795;-61
2023/04/02 08:12:00;;;;;;;6.20;2.20;;;;;;;3.81;82.03;100790.83;110937;1206;139928;-60
2023/04/02 08:14:25;;;;;;;6.00;1.90;;;;;;;3.79;81.69;100791.40;110961;1212;99249;-61
2023/04/02 08:16:54;;;;;;;9.90;1.90;;;;;;;3.78;81.99;100794.77;110848;1209;138250;-60
2023/04/02 08:19:20;;;;;;;7.70;1.40;;;;;;;3.82;81.99;100793.81;110938;1206;97647;-60
2023/04/02 08:21:50;;;;;;;6.80;2.40;;;;;;;3.83;81.58;100791.52;110964;1206;97717;-61
2023/04/02 08:24:18;;;;;;;8.20;2.70;;;;;;;3.90;81.90;100803.09;110625;1211;138452;-61
2023/04/02 08:26:44;;;;;;;8.30;2.10;;;;;;;4.00;82.04;100803.84;110894;1205;108050;-61
2023/04/02 08:29:10;;;;;;;6.30;2.20;;;;;;;4.02;82.10;100804.88;110918;1210;140082;-61
2023/04/02 08:31:35;;;;;;;4.30;1.50;;;;;;;4.12;82.05;100809.48;111095;1206;97604;-61
2023/04/02 08:34:00;;;;;;;6.40;1.90;;;;;;;4.15;81.75;100814.93;111102;1211;97690;-61
2023/04/02 08:36:29;;;;;;;12.70;2.80;;;;;;;4.11;81.51;100813.58;110822;1211;138717;-60
2023/04/02 08:38:55;;;;;;;3.40;1.50;;;;;;;4.12;81.67;100819.74;111047;1206;97750;-61
2023/04/02 08:41:26;;;;;;;6.40;1.80;;;;;;;4.13;81.39;100820.79;110851;1209;138285;-61
2023/04/02 08:44:17;;;;;;;5.40;1.70;;;;;;;4.17;81.58;100819.69;111053;1226;111322;-61
2023/04/02 08:46:49;;;;;;;4.00;1.70;;;;;;;4.19;81.44;100822.12;110832;1209;139681;-61
2023/04/02 08:49:36;;;;;;;6.50;2.40;;;;;;;4.20;81.36;100822.82;110921;1211;107971;-63
2023/04/02 08:52:03;;;;;;;4.20;1.50;;;;;;;4.26;81.32;100822.73;111025;1206;97665;-63
2023/04/02 08:54:33;;;;;;;6.20;1.50;;;;;;;4.25;80.95;100823.63;111246;1211;97650;-63
2023/04/02 08:57:13;;;;;;;9.80;2.20;;;;;;;4.28;80.72;100826.25;111062;1206;111154;-61
2023/04/02 08:59:42;;;;;;;5.70;1.20;;;;;;;4.34;80.93;100831.11;110778;1211;138902;-64
2023/04/02 09:02:27;;;;;;;3.10;1.70;;;;;;;4.37;80.41;100830.70;110940;1207;107975;-62
2023/04/02 09:04:53;;;;;;;4.70;1.90;;;;;;;4.43;80.56;100832.02;110848;1206;138581;-62
2023/04/02 09:07:18;;;;;;;5.60;1.40;;;;;;;4.55;80.42;100835.73;113192;1206;95890;-62
2023/04/02 09:09:47;;;;;;;4.40;1.70;;;;;;;4.61;79.94;100843.43;113330;1208;95925;-63
2023/04/02 09:12:23;;;;;;;3.80;2.40;;;;;;;4.71;80.54;100841.86;111201;1211;138193;-62
2023/04/02 09:15:15;;;;;;;9.40;2.40;;;;;;;4.81;80.51;100847.52;110880;1211;97581;-62
2023/04/02 09:17:41;;;;;;;4.30;1.90;;;;;;;4.90;80.45;100851.63;110636;1213;138446;-61
2023/04/02 09:20:22;;;;;;;8.70;1.80;;;;;;;4.96;80.40;100854.00;111025;1210;97818;-62
2023/04/02 09:22:50;;;;;;;5.50;2.10;;;;;;;4.99;80.30;100857.67;110944;1211;139770;-61
2023/04/02 09:25:30;;;;;;;2.70;1.60;;;;;;;5.08;80.58;100860.70;110815;1211;107887;-61
2023/04/02 09:28:00;;;;;;;8.40;2.40;;;;;;;5.11;80.30;100862.41;110815;1221;98886;-61
2023/04/02 09:30:37;;;;;;;5.70;2.50;;;;;;;5.09;80.22;100867.41;111507;1211;138429;-60
2023/04/02 09:33:07;;;;;;;3.70;1.80;;;;;;;5.15;80.30;100875.64;111012;1212;111177;-61
2023/04/02 09:35:52;;;;;;;6.40;2.00;;;;;;;5.16;80.19;100875.26;110780;1212;138304;-62
2023/04/02 09:38:20;;;;;;;6.20;1.70;;;;;;;5.12;79.76;100879.59;110991;1211;108022;-61
2023/04/02 09:41:03;;;;;;;6.80;2.10;;;;;;;5.22;80.20;100882.39;110946;1208;139361;-61
2023/04/02 09:43:36;;;;;;;4.40;2.00;;;;;;;5.31;80.03;100885.24;111110;1208;97617;-61
2023/04/02 09:46:03;;;;;;;2.60;1.40;;;;;;;5.33;80.05;100889.09;111028;1206;111087;-61
2023/04/02 09:48:29;;;;;;;16.40;3.50;;;;;;;5.32;79.50;100892.30;111026;1208;99107;-61
2023/04/02 09:51:08;;;;;;;3.80;1.90;;;;;;;5.31;79.59;100894.27;111096;1206;97745;-61
2023/04/02 09:53:37;;;;;;;6.70;2.60;;;;;;;5.33;79.30;100893.89;110930;1211;138561;-61
2023/04/02 09:56:22;;;;;;;9.40;1.80;;;;;;;5.36;79.42;100900.03;111036;1209;97571;-61
2023/04/02 09:59:14;;;;;;;2.80;1.50;;;;;;;5.41;79.12;100903.30;111077;1211;140152;-61
2023/04/02 10:01:55;;;;;;;5.20;2.00;;;;;;;5.35;79.00;100903.23;111057;1207;103115;-62
2023/04/02 10:04:34;;;;;;;;;;;;;;;5.34;78.89;100909.46;110934;1206;139634;-60
2023/04/02 10:07:01;;;;;;;3.40;1.60;;;;;;;5.41;79.21;100906.67;111033;1211;97684;-61
2023/04/02 10:09:32;;;;;;;4.10;1.90;;;;;;;5.51;79.22;100911.27;111015;1211;98026;-62
2023/04/02 10:12:00;;;;;;;6.40;1.70;;;;;;;5.62;79.17;100912.69;110947;1208;139911;-61
2023/04/02 10:14:41;;;;;;;3.70;1.90;;;;;;;5.68;78.65;100912.74;111179;1211;97733;-61
2023/04/02 10:17:23;;;;;;;7.80;2.20;;;;;;;5.76;78.79;100914.17;111133;1211;139737;-60
2023/04/02 10:20:00;;;;;;;5.70;1.80;;;;;;;5.82;78.09;100915.98;111092;1211;97552;-61
2023/04/02 10:22:28;;;;;;;6.00;2.10;;;;;;;5.86;78.25;100920.54;111015;1211;139212;-61
2023/04/02 10:24:54;;;;;;;8.40;2.20;;;;;;;5.92;78.46;100922.58;111121;1207;111595;-61
2023/04/02 10:27:41;;;;;;;8.00;2.20;;;;;;;5.97;78.42;100923.90;111067;1211;98116;-61
2023/04/02 10:30:24;;;;;;;15.00;2.50;;;;;;;5.99;78.31;100927.93;110983;1211;139850;-61
2023/04/02 10:33:05;;;;;;;5.80;2.00;;;;;;;6.01;78.15;100932.34;110974;1208;97690;-60
2023/04/02 10:35:49;;;;;;;4.00;2.00;;;;;;;6.01;77.99;100935.00;110942;1211;139999;-61
2023/04/02 10:38:25;;;;;;;6.00;1.80;;;;;;;6.02;77.81;100938.52;110919;1211;111131;-61
2023/04/02 10:41:02;;;;;;;5.40;1.60;;;;;;;6.02;77.97;100939.42;110910;1211;138891;-62
2023/04/02 10:43:53;;;;;;;3.50;2.00;;;;;;;5.97;77.66;100939.86;111006;1206;108090;-61
2023/04/02 10:46:39;;;;;;;2.80;1.80;;;;;;;5.86;76.46;100947.52;110916;1208;139222;-61
2023/04/02 10:49:30;;;;;;;8.20;2.00;;;;;;;5.78;77.05;100951.73;111090;1211;97638;-61
2023/04/02 10:52:03;;;;;;;3.10;1.60;;;;;;;5.81;76.84;100953.27;111253;1208;111618;-61
2023/04/02 10:54:32;;;;;;;7.40;2.40;;;;;;;5.80;76.30;100956.46;110994;1209;99765;-61
2023/04/02 10:57:09;;;;;;;6.10;1.60;;;;;;;5.81;75.51;100969.21;111107;1205;108336;-61
2023/04/02 10:59:38;;;;;;;9.60;2.20;;;;;;;5.79;75.22;100969.09;110947;1206;138413;-61
2023/04/02 11:02:21;;;;;;;5.90;2.10;;;;;;;5.81;75.38;100975.08;111120;1208;97638;-62
2023/04/02 11:04:48;;;;;;;5.00;1.90;;;;;;;5.88;75.66;100971.06;110997;1209;139859;-61
2023/04/02 11:07:20;;;;;;;2.40;1.60;;;;;;;5.93;75.46;100971.70;111097;1209;97822;-61
2023/04/02 11:09:51;;;;;;;4.10;1.90;;;;;;;5.96;75.23;100975.90;111083;1211;107443;-61
2023/04/02 11:12:24;;;;;;;3.30;1.40;;;;;;;5.97;75.34;100982.79;111075;1209;138367;-62
2023/04/02 11:14:52;;;;;;;4.20;1.50;;;;;;;6.01;74.79;100991.05;111184;1208;97602;-62
2023/04/02 11:17:19;;;;;;;4.00;1.90;;;;;;;6.05;74.48;100991.15;110956;1211;138374;-63
2023/04/02 11:19:44;;;;;;;4.40;1.80;;;;;;;6.07;74.08;100995.19;111247;1208;97661;-63
2023/04/02 11:22:17;;;;;;;4.90;2.20;;;;;;;6.05;73.79;101000.37;110955;1208;138580;-62
2023/04/02 11:24:46;;;;;;;4.00;2.10;;;;;;;6.09;73.55;101006.51;111076;1211;99765;-61
2023/04/02 11:27:17;;;;;;;9.40;2.30;;;;;;;6.03;72.93;101003.27;111034;1206;97639;-62
2023/04/02 11:30:04;;;;;;;4.30;2.10;;;;;;;6.04;73.47;101012.64;110969;1211;138169;-62
2023/04/02 11:32:33;;;;;;;6.60;2.20;;;;;;;6.07;73.43;101013.98;111074;1207;99693;-62
2023/04/02 11:35:03;;;;;;;2.10;1.30;;;;;;;6.07;72.76;101016.66;110963;1211;138121;-62
2023/04/02 11:37:38;;;;;;;2.50;1.50;;;;;;;5.96;72.01;101019.87;111029;1211;97719;-62
2023/04/02 11:40:44;;;;;;;3.70;1.70;;;;;;;5.83;71.44;101017.60;111046;1211;140540;-62
2023/04/02 11:43:49;;;;;;;3.40;1.30;;;;;;;5.75;71.52;101025.73;111072;1209;111336;-62
2023/04/02 11:46:17;;;;;;;5.40;1.80;;;;;;;5.78;71.80;101026.91;111100;1210;139340;-63
2023/04/02 11:48:42;;;;;;;4.00;2.20;;;;;;;5.79;71.61;101030.45;111054;1206;108005;-63
2023/04/02 11:51:20;;;;;;;3.40;1.80;;;;;;;5.77;71.66;101037.21;111038;1211;97706;-62